Time;durP1;ratioP1;P1;durP2;ratioP2;P2;SDS_P1;SDS_P2;PMS_P1;PMS_P2;Temp;Humidity;BMP_temperature;BMP_pressure;BME280_temperature;BME280_humidity;BME280_pressure;Samples;Min_cycle;Max_cycle;Signal;HPM_P1;HPM_P2
2022/10/19 00:01:14;;;;;;;;;;;12.00;95.50;;;;;;4989598;28;20665;-67
2022/10/19 00:03:40;;;;;;;;;;;12.00;95.50;;;;;;4988707;28;19917;-67
2022/10/19 00:06:13;;;;;;;;;;;11.90;95.40;;;;;;4989323;28;19914;-67
2022/10/19 00:08:39;;;;;;;;;;;11.90;95.40;;;;;;4988840;28;19949;-68
2022/10/19 00:11:04;;;;;;;;;;;11.90;95.50;;;;;;4988523;28;19956;-68
2022/10/19 00:13:30;;;;;;;;;;;11.90;95.40;;;;;;4988039;28;19956;-68
2022/10/19 00:15:55;;;;;;;;;;;11.90;95.40;;;;;;4989078;28;19968;-68
2022/10/19 00:18:21;;;;;;;;;;;11.80;95.40;;;;;;4989398;28;19922;-67
2022/10/19 00:20:46;;;;;;;;;;;11.80;95.40;;;;;;4990858;28;20349;-67
2022/10/19 00:23:12;;;;;;;;;;;11.80;95.40;;;;;;4988878;28;20414;-68
2022/10/19 00:25:37;;;;;;;;;;;11.80;95.30;;;;;;4987370;28;19997;-68
2022/10/19 00:28:03;;;;;;;;;;;11.80;95.30;;;;;;4988741;28;19914;-68
2022/10/19 00:30:28;;;;;;;;;;;11.80;95.30;;;;;;4987582;28;19920;-67
2022/10/19 00:32:54;;;;;;;;;;;11.80;95.30;;;;;;4986397;28;19909;-67
2022/10/19 00:35:19;;;;;;;;;;;11.80;95.30;;;;;;4988976;28;19972;-67
2022/10/19 00:37:45;;;;;;;;;;;11.70;95.30;;;;;;4989399;28;20017;-67
2022/10/19 00:40:10;;;;;;;;;;;11.70;95.30;;;;;;4988788;28;20641;-68
2022/10/19 00:42:36;;;;;;;;;;;11.70;95.20;;;;;;4989541;28;19965;-67
2022/10/19 00:45:04;;;;;;;;;;;11.70;95.50;;;;;;4988702;28;19914;-67
2022/10/19 00:47:30;;;;;;;;;;;11.70;95.20;;;;;;4988891;28;19924;-67
2022/10/19 00:49:56;;;;;;;;;;;11.70;95.20;;;;;;4991602;28;20661;-68
2022/10/19 00:52:23;;;;;;;;;;;11.70;95.20;;;;;;4988618;28;19920;-67
2022/10/19 00:54:50;;;;;;;;;;;11.60;95.10;;;;;;4988715;28;19949;-68
2022/10/19 00:57:16;;;;;;;;;;;11.60;95.20;;;;;;5002206;28;19987;-68
2022/10/19 00:59:42;;;;;;;;;;;11.60;95.10;;;;;;5004133;28;20593;-67
2022/10/19 01:02:08;;;;;;;;;;;11.60;95.20;;;;;;5002861;28;19913;-67
2022/10/19 01:04:35;;;;;;;;;;;11.50;95.10;;;;;;4988204;28;19968;-67
2022/10/19 01:07:02;;;;;;;;;;;11.60;95.10;;;;;;4988651;28;19925;-68
2022/10/19 01:09:27;;;;;;;;;;;11.50;95.10;;;;;;5005910;28;20015;-67
2022/10/19 01:12:11;;;;;;;;;;;11.50;95.00;;;;;;4998545;28;20017;-67
2022/10/19 01:14:57;;;;;;;;;;;11.50;95.00;;;;;;4987091;28;20389;-68
2022/10/19 01:17:33;;;;;;;;;;;11.50;95.00;;;;;;4985607;28;20608;-68
2022/10/19 01:20:01;;;;;;;;;;;11.50;95.00;;;;;;4987626;28;20305;-67
2022/10/19 01:22:45;;;;;;;;;;;11.50;95.00;;;;;;4987757;28;19937;-67
2022/10/19 01:25:14;;;;;;;;;;;11.40;95.00;;;;;;4988286;28;19914;-67
2022/10/19 01:28:03;;;;;;;;;;;11.40;94.90;;;;;;4988193;28;19910;-68
2022/10/19 01:30:46;;;;;;;;;;;11.40;95.00;;;;;;4998691;28;19987;-67
2022/10/19 01:33:14;;;;;;;;;;;11.40;95.00;;;;;;4987639;28;19913;-67
2022/10/19 01:35:43;;;;;;;;;;;11.40;94.90;;;;;;4987415;28;20013;-67
2022/10/19 01:38:11;;;;;;;;;;;11.30;94.90;;;;;;4987209;28;19921;-68
2022/10/19 01:40:48;;;;;;;;;;;11.40;94.90;;;;;;4987331;28;19914;-67
2022/10/19 01:43:13;;;;;;;;;;;11.30;94.80;;;;;;4996729;28;19913;-67
2022/10/19 01:45:46;;;;;;;;;;;11.30;94.80;;;;;;4986324;28;20403;-67
2022/10/19 01:48:11;;;;;;;;;;;11.30;94.80;;;;;;4985037;28;19914;-67
2022/10/19 01:50:39;;;;;;;;;;;11.30;94.80;;;;;;4989235;28;20571;-67
2022/10/19 01:53:07;;;;;;;;;;;11.30;94.80;;;;;;4987493;28;19913;-67
2022/10/19 01:55:33;;;;;;;;;;;11.30;94.80;;;;;;4987617;28;20024;-67
2022/10/19 01:58:02;;;;;;;;;;;11.20;94.70;;;;;;4986838;28;19928;-67
2022/10/19 02:00:28;;;;;;;;;;;11.20;94.70;;;;;;4984237;28;19910;-68
2022/10/19 02:02:54;;;;;;;;;;;11.20;94.70;;;;;;4987483;28;19993;-67
2022/10/19 02:05:21;;;;;;;;;;;11.20;94.70;;;;;;5005067;28;19940;-68
2022/10/19 02:07:53;;;;;;;;;;;11.20;94.90;;;;;;5003739;28;19918;-68
2022/10/19 02:10:19;;;;;;;;;;;11.20;94.60;;;;;;5000173;28;20020;-68
2022/10/19 02:12:45;;;;;;;;;;;11.20;94.60;;;;;;4986820;28;20422;-68
2022/10/19 02:15:13;;;;;;;;;;;11.10;94.60;;;;;;4990623;28;19991;-67
2022/10/19 02:17:42;;;;;;;;;;;11.10;94.60;;;;;;5004453;28;19925;-67
2022/10/19 02:20:08;;;;;;;;;;;11.10;94.60;;;;;;4987714;28;19925;-68
2022/10/19 02:22:34;;;;;;;;;;;11.10;94.60;;;;;;4990799;28;19913;-67
2022/10/19 02:24:59;;;;;;;;;;;11.10;94.50;;;;;;4990423;28;20739;-67
2022/10/19 02:27:25;;;;;;;;;;;11.00;94.50;;;;;;4992016;28;19925;-67
2022/10/19 02:29:51;;;;;;;;;;;11.10;94.50;;;;;;5005047;28;19920;-68
2022/10/19 02:32:16;;;;;;;;;;;11.00;94.50;;;;;;5000231;28;19913;-67
2022/10/19 02:34:42;;;;;;;;;;;11.00;94.40;;;;;;4987267;28;19913;-67
2022/10/19 02:37:07;;;;;;;;;;;11.00;94.40;;;;;;4986922;28;19918;-68
2022/10/19 02:39:33;;;;;;;;;;;11.00;94.40;;;;;;4986275;28;20461;-67
2022/10/19 02:42:13;;;;;;;;;;;11.00;94.40;;;;;;4985532;28;19996;-67
2022/10/19 02:44:46;;;;;;;;;;;10.90;94.40;;;;;;4997170;28;20036;-67
2022/10/19 02:47:17;;;;;;;;;;;10.90;94.30;;;;;;4986170;28;19920;-67
2022/10/19 02:49:42;;;;;;;;;;;11.00;94.40;;;;;;4986431;28;19936;-68
2022/10/19 02:52:09;;;;;;;;;;;10.90;94.30;;;;;;4986597;28;20383;-68
2022/10/19 02:54:35;;;;;;;;;;;10.90;94.30;;;;;;4986697;28;19932;-67
2022/10/19 02:57:03;;;;;;;;;;;10.90;94.30;;;;;;4986858;28;19921;-68
2022/10/19 02:59:28;;;;;;;;;;;10.90;94.30;;;;;;4986973;28;20086;-68
2022/10/19 03:01:54;;;;;;;;;;;10.90;94.30;;;;;;4996727;28;19918;-67
2022/10/19 03:04:20;;;;;;;;;;;10.80;94.30;;;;;;4987348;28;19914;-67
2022/10/19 03:06:45;;;;;;;;;;;10.80;94.20;;;;;;4986614;28;19917;-67
2022/10/19 03:09:11;;;;;;;;;;;10.80;94.20;;;;;;4984805;28;20685;-67
2022/10/19 03:11:36;;;;;;;;;;;10.80;94.20;;;;;;4984325;28;19929;-68
2022/10/19 03:14:02;;;;;;;;;;;10.80;94.20;;;;;;4989277;28;19914;-67
2022/10/19 03:16:27;;;;;;;;;;;10.80;94.20;;;;;;4986524;28;19921;-67
2022/10/19 03:18:53;;;;;;;;;;;10.70;94.10;;;;;;4986218;28;20443;-67
2022/10/19 03:21:19;;;;;;;;;;;10.70;94.10;;;;;;4982549;28;19914;-68
2022/10/19 03:23:44;;;;;;;;;;;10.70;94.10;;;;;;4993268;28;19971;-67
2022/10/19 03:26:12;;;;;;;;;;;10.70;94.10;;;;;;5002087;28;19921;-67
2022/10/19 03:28:37;;;;;;;;;;;10.70;94.10;;;;;;5004256;28;19913;-67
2022/10/19 03:31:03;;;;;;;;;;;10.70;94.10;;;;;;5003901;28;19913;-68
2022/10/19 03:33:28;;;;;;;;;;;10.70;94.00;;;;;;5000729;28;20342;-67
2022/10/19 03:36:12;;;;;;;;;;;10.70;94.00;;;;;;5002328;28;19979;-67
2022/10/19 03:38:38;;;;;;;;;;;10.70;94.00;;;;;;5003662;28;20670;-68
2022/10/19 03:41:07;;;;;;;;;;;10.70;94.00;;;;;;5003255;28;19913;-67
2022/10/19 03:43:33;;;;;;;;;;;10.60;93.90;;;;;;5004237;28;19916;-67
2022/10/19 03:45:58;;;;;;;;;;;10.60;93.90;;;;;;4992230;28;19914;-67
2022/10/19 03:48:23;;;;;;;;;;;10.60;93.90;;;;;;5001470;28;19920;-68
2022/10/19 03:50:57;;;;;;;;;;;10.60;93.90;;;;;;4989417;28;19917;-67
2022/10/19 03:53:23;;;;;;;;;;;10.60;93.90;;;;;;4987575;28;20371;-68
2022/10/19 03:55:48;;;;;;;;;;;10.60;93.90;;;;;;4989535;28;19909;-67
2022/10/19 03:58:14;;;;;;;;;;;10.60;93.90;;;;;;4989196;28;19964;-68
2022/10/19 04:00:39;;;;;;;;;;;10.50;93.90;;;;;;4995208;28;19984;-67
2022/10/19 04:03:04;;;;;;;;;;;10.50;93.90;;;;;;5000080;28;20013;-67
2022/10/19 04:05:30;;;;;;;;;;;10.50;93.90;;;;;;4989346;28;20673;-67
2022/10/19 04:07:55;;;;;;;;;;;10.60;93.90;;;;;;4989331;28;20006;-67
2022/10/19 04:10:21;;;;;;;;;;;10.50;93.90;;;;;;4989525;28;19922;-67
2022/10/19 04:12:46;;;;;;;;;;;10.50;93.90;;;;;;4989123;28;20278;-68
2022/10/19 04:15:12;;;;;;;;;;;10.50;94.00;;;;;;4992371;28;20383;-67
2022/10/19 04:17:37;;;;;;;;;;;10.50;93.90;;;;;;5000686;28;20437;-67
2022/10/19 04:20:03;;;;;;;;;;;10.50;93.90;;;;;;4996897;28;19921;-67
2022/10/19 04:22:28;;;;;;;;;;;10.50;93.90;;;;;;4989161;28;20371;-68
2022/10/19 04:24:54;;;;;;;;;;;10.50;93.90;;;;;;4989128;28;19945;-67
2022/10/19 04:27:19;;;;;;;;;;;10.50;93.90;;;;;;4989332;28;20004;-67
2022/10/19 04:29:45;;;;;;;;;;;10.50;93.90;;;;;;4988915;28;20402;-67
2022/10/19 04:32:10;;;;;;;;;;;10.50;94.00;;;;;;4989007;28;19909;-68
2022/10/19 04:34:36;;;;;;;;;;;10.50;94.00;;;;;;5003427;28;20568;-67
2022/10/19 04:37:01;;;;;;;;;;;10.50;94.00;;;;;;5006497;28;19924;-67
2022/10/19 04:39:27;;;;;;;;;;;10.50;94.00;;;;;;5006546;28;20463;-67
2022/10/19 04:41:53;;;;;;;;;;;10.40;93.90;;;;;;5006177;28;19921;-68
2022/10/19 04:44:18;;;;;;;;;;;10.40;94.00;;;;;;4998481;28;20001;-68
2022/10/19 04:46:44;;;;;;;;;;;10.50;94.00;;;;;;4988644;28;19945;-67
2022/10/19 04:49:09;;;;;;;;;;;10.40;93.90;;;;;;4988630;28;19922;-67
2022/10/19 04:51:35;;;;;;;;;;;10.50;94.00;;;;;;4987776;28;20379;-68
2022/10/19 04:54:01;;;;;;;;;;;10.50;94.00;;;;;;4987877;28;19921;-67
2022/10/19 04:56:26;;;;;;;;;;;10.40;94.00;;;;;;4988630;28;19913;-68
2022/10/19 04:58:56;;;;;;;;;;;10.40;94.00;;;;;;4987932;28;19918;-68
2022/10/19 05:01:22;;;;;;;;;;;10.40;94.00;;;;;;4988010;28;20374;-67
2022/10/19 05:03:51;;;;;;;;;;;10.40;94.00;;;;;;4991841;28;19910;-67
2022/10/19 05:06:17;;;;;;;;;;;10.40;94.00;;;;;;4994907;28;20377;-67
2022/10/19 05:08:42;;;;;;;;;;;10.40;94.00;;;;;;4997677;28;20004;-67
2022/10/19 05:11:09;;;;;;;;;;;10.40;94.00;;;;;;4983110;28;19964;-67
2022/10/19 05:13:35;;;;;;;;;;;10.40;94.00;;;;;;5006492;28;19956;-68
2022/10/19 05:16:01;;;;;;;;;;;10.40;94.00;;;;;;4987948;28;20507;-67
2022/10/19 05:18:27;;;;;;;;;;;10.40;93.90;;;;;;4987741;28;19918;-67
2022/10/19 05:21:05;;;;;;;;;;;10.40;94.00;;;;;;4987223;28;19938;-67
2022/10/19 05:23:30;;;;;;;;;;;10.40;94.00;;;;;;4997400;28;19929;-67
2022/10/19 05:25:59;;;;;;;;;;;10.40;94.00;;;;;;4982485;28;19914;-67
2022/10/19 05:28:25;;;;;;;;;;;10.40;94.00;;;;;;4987816;28;19910;-67
2022/10/19 05:30:50;;;;;;;;;;;10.40;94.00;;;;;;5006153;28;20692;-67
2022/10/19 05:33:16;;;;;;;;;;;10.40;94.00;;;;;;4994258;28;19914;-67
2022/10/19 05:35:41;;;;;;;;;;;10.40;94.00;;;;;;4987731;28;19913;-67
2022/10/19 05:38:07;;;;;;;;;;;10.40;94.00;;;;;;4987430;28;19925;-67
2022/10/19 05:40:32;;;;;;;;;;;10.40;94.10;;;;;;4998083;28;20266;-68
2022/10/19 05:42:58;;;;;;;;;;;10.40;94.10;;;;;;4997261;28;19913;-68
2022/10/19 05:45:23;;;;;;;;;;;10.40;94.10;;;;;;4988297;28;19953;-68
2022/10/19 05:47:49;;;;;;;;;;;10.40;94.10;;;;;;4988982;28;19909;-68
2022/10/19 05:50:14;;;;;;;;;;;10.40;94.10;;;;;;4988041;28;19910;-68
2022/10/19 05:52:40;;;;;;;;;;;10.40;94.20;;;;;;4987124;28;19964;-68
2022/10/19 05:55:05;;;;;;;;;;;10.40;94.20;;;;;;4986907;28;19918;-68
2022/10/19 05:57:31;;;;;;;;;;;10.40;94.20;;;;;;4987202;28;20780;-68
2022/10/19 05:59:57;;;;;;;;;;;10.40;94.20;;;;;;4986110;28;20672;-68
2022/10/19 06:02:23;;;;;;;;;;;10.40;94.20;;;;;;4989328;28;19964;-68
2022/10/19 06:04:48;;;;;;;;;;;10.40;94.20;;;;;;4985745;28;20574;-68
2022/10/19 06:07:14;;;;;;;;;;;10.30;94.20;;;;;;4986992;28;20355;-68
2022/10/19 06:09:39;;;;;;;;;;;10.40;94.20;;;;;;4986825;28;20042;-68
2022/10/19 06:12:05;;;;;;;;;;;10.30;94.20;;;;;;4985410;28;19921;-68
2022/10/19 06:14:30;;;;;;;;;;;10.40;94.20;;;;;;4989350;28;19917;-68
2022/10/19 06:16:56;;;;;;;;;;;10.30;94.20;;;;;;4987058;28;20065;-68
2022/10/19 06:19:21;;;;;;;;;;;10.30;94.20;;;;;;4992939;28;19921;-68
2022/10/19 06:21:47;;;;;;;;;;;10.30;94.20;;;;;;4986717;28;19969;-68
2022/10/19 06:24:12;;;;;;;;;;;10.30;94.20;;;;;;4997541;28;19913;-68
2022/10/19 06:26:38;;;;;;;;;;;10.30;94.20;;;;;;5004580;28;19913;-68
2022/10/19 06:29:04;;;;;;;;;;;10.30;94.20;;;;;;5005143;28;19918;-69
2022/10/19 06:31:30;;;;;;;;;;;10.30;94.20;;;;;;4993439;28;20341;-68
2022/10/19 06:33:56;;;;;;;;;;;10.30;94.20;;;;;;4987170;28;20507;-68
2022/10/19 06:36:22;;;;;;;;;;;10.30;94.10;;;;;;4986921;28;19960;-68
2022/10/19 06:38:48;;;;;;;;;;;10.30;94.20;;;;;;4997189;28;19925;-68
2022/10/19 06:41:14;;;;;;;;;;;10.30;94.10;;;;;;5003044;28;20367;-68
2022/10/19 06:43:42;;;;;;;;;;;10.30;94.20;;;;;;5000988;28;19924;-68
2022/10/19 06:46:09;;;;;;;;;;;10.30;94.20;;;;;;4986605;28;19909;-68
2022/10/19 06:48:34;;;;;;;;;;;10.30;94.20;;;;;;4986259;28;19914;-68
2022/10/19 06:51:01;;;;;;;;;;;10.30;94.20;;;;;;4986312;28;19941;-68
2022/10/19 06:53:28;;;;;;;;;;;10.30;94.20;;;;;;4986518;28;19914;-68
2022/10/19 06:56:00;;;;;;;;;;;10.30;94.10;;;;;;4984847;28;20534;-68
2022/10/19 06:58:26;;;;;;;;;;;10.30;94.10;;;;;;4984850;28;19917;-68
2022/10/19 07:00:56;;;;;;;;;;;10.30;94.10;;;;;;4985937;28;19925;-68
2022/10/19 07:03:21;;;;;;;;;;;10.30;94.20;;;;;;4988788;28;19918;-68
2022/10/19 07:05:57;;;;;;;;;;;10.30;94.20;;;;;;4985756;28;19921;-68
2022/10/19 07:08:23;;;;;;;;;;;10.30;94.20;;;;;;4986303;28;19913;-68
2022/10/19 07:10:52;;;;;;;;;;;10.30;94.20;;;;;;4985613;28;19921;-68
2022/10/19 07:13:18;;;;;;;;;;;10.30;94.40;;;;;;4987836;28;19921;-68
2022/10/19 07:15:43;;;;;;;;;;;10.30;94.20;;;;;;4989970;28;19910;-68
2022/10/19 07:18:09;;;;;;;;;;;10.30;94.20;;;;;;5002094;28;20309;-68
2022/10/19 07:20:34;;;;;;;;;;;10.40;94.30;;;;;;4989938;28;20435;-68
2022/10/19 07:23:01;;;;;;;;;;;10.30;94.30;;;;;;4990040;28;19917;-68
2022/10/19 07:25:27;;;;;;;;;;;10.30;94.30;;;;;;4989906;28;19920;-69
2022/10/19 07:27:52;;;;;;;;;;;10.30;94.30;;;;;;4999001;28;19921;-68
2022/10/19 07:30:19;;;;;;;;;;;10.30;94.30;;;;;;5007748;28;19964;-69
2022/10/19 07:32:44;;;;;;;;;;;10.40;94.40;;;;;;5000014;28;19917;-68
2022/10/19 07:35:10;;;;;;;;;;;10.40;94.40;;;;;;4989503;28;19918;-69
2022/10/19 07:37:35;;;;;;;;;;;10.40;94.40;;;;;;4989491;28;20402;-68
2022/10/19 07:40:01;;;;;;;;;;;10.40;94.40;;;;;;4989762;28;20020;-69
2022/10/19 07:42:29;;;;;;;;;;;10.40;94.40;;;;;;4989612;28;19918;-68
2022/10/19 07:44:54;;;;;;;;;;;10.40;94.40;;;;;;4989091;28;19997;-69
2022/10/19 07:47:20;;;;;;;;;;;10.40;94.40;;;;;;4988992;28;19917;-70
2022/10/19 07:49:45;;;;;;;;;;;10.40;94.40;;;;;;4988926;28;20004;-69
2022/10/19 07:52:11;;;;;;;;;;;10.40;94.50;;;;;;4988828;28;19945;-69
2022/10/19 07:54:36;;;;;;;;;;;10.40;94.50;;;;;;4984302;28;20323;-70
2022/10/19 07:57:02;;;;;;;;;;;10.40;94.50;;;;;;4988852;28;20294;-68
2022/10/19 07:59:27;;;;;;;;;;;10.40;94.50;;;;;;4999806;28;20000;-68
2022/10/19 08:01:53;;;;;;;;;;;10.40;94.50;;;;;;4990705;28;19914;-68
2022/10/19 08:04:19;;;;;;;;;;;10.40;94.50;;;;;;4987579;28;20003;-68
2022/10/19 08:06:44;;;;;;;;;;;10.40;94.50;;;;;;4988819;28;19914;-68
2022/10/19 08:09:10;;;;;;;;;;;10.40;94.50;;;;;;4988911;28;19921;-68
2022/10/19 08:11:35;;;;;;;;;;;10.40;94.50;;;;;;4987505;28;19921;-68
2022/10/19 08:14:02;;;;;;;;;;;10.50;94.50;;;;;;4991318;28;19914;-68
2022/10/19 08:16:35;;;;;;;;;;;10.40;94.50;;;;;;4988526;28;19914;-68
2022/10/19 08:19:02;;;;;;;;;;;10.40;94.50;;;;;;5001437;28;20298;-68
2022/10/19 08:21:28;;;;;;;;;;;10.50;94.60;;;;;;4986938;28;19917;-68
2022/10/19 08:23:54;;;;;;;;;;;10.50;94.50;;;;;;4994558;28;19910;-68
2022/10/19 08:26:20;;;;;;;;;;;10.50;94.80;;;;;;4989229;28;19924;-68
2022/10/19 08:28:45;;;;;;;;;;;10.50;94.60;;;;;;4987875;28;20365;-68
2022/10/19 08:31:12;;;;;;;;;;;10.50;94.60;;;;;;4988205;28;19913;-68
2022/10/19 08:33:38;;;;;;;;;;;10.50;94.60;;;;;;4993670;28;19924;-68
2022/10/19 08:36:07;;;;;;;;;;;10.50;94.50;;;;;;4988334;28;19910;-68
2022/10/19 08:38:33;;;;;;;;;;;10.50;94.50;;;;;;4987266;28;20437;-68
2022/10/19 08:41:03;;;;;;;;;;;10.50;94.50;;;;;;4997757;28;19996;-68
2022/10/19 08:43:37;;;;;;;;;;;10.60;94.50;;;;;;5006713;28;20317;-68
2022/10/19 08:46:21;;;;;;;;;;;10.60;94.50;;;;;;4990163;28;19914;-68
2022/10/19 08:48:47;;;;;;;;;;;10.60;94.50;;;;;;4988497;28;19987;-68
2022/10/19 08:51:12;;;;;;;;;;;10.60;94.50;;;;;;4987507;28;20495;-68
2022/10/19 08:53:44;;;;;;;;;;;10.70;94.50;;;;;;4988095;28;20387;-68
2022/10/19 08:56:22;;;;;;;;;;;10.70;94.40;;;;;;4988103;28;19917;-68
2022/10/19 08:58:53;;;;;;;;;;;10.70;94.40;;;;;;4983521;28;20642;-68
2022/10/19 09:01:19;;;;;;;;;;;10.70;94.50;;;;;;4987919;28;19925;-68
2022/10/19 09:03:47;;;;;;;;;;;10.70;94.40;;;;;;4990830;28;19914;-68
2022/10/19 09:06:21;;;;;;;;;;;10.70;94.40;;;;;;4987549;28;19997;-68
2022/10/19 09:08:49;;;;;;;;;;;10.80;94.40;;;;;;5005599;28;19921;-68
2022/10/19 09:11:15;;;;;;;;;;;10.80;94.40;;;;;;5005483;28;20008;-68
2022/10/19 09:13:40;;;;;;;;;;;10.80;94.40;;;;;;5004097;28;20004;-68
2022/10/19 09:16:10;;;;;;;;;;;10.80;94.40;;;;;;4988000;28;19917;-68
2022/10/19 09:18:36;;;;;;;;;;;10.80;94.50;;;;;;4987575;28;20281;-68
2022/10/19 09:21:15;;;;;;;;;;;10.80;94.50;;;;;;5000940;28;19924;-68
2022/10/19 09:23:43;;;;;;;;;;;10.80;94.40;;;;;;4996687;28;19920;-68
2022/10/19 09:26:11;;;;;;;;;;;10.80;94.50;;;;;;4987683;28;20637;-68
2022/10/19 09:28:43;;;;;;;;;;;10.80;94.50;;;;;;4987568;28;20395;-68
2022/10/19 09:31:13;;;;;;;;;;;10.80;94.60;;;;;;4987276;28;19914;-68
2022/10/19 09:33:40;;;;;;;;;;;10.80;94.60;;;;;;4993345;28;19921;-68
2022/10/19 09:36:06;;;;;;;;;;;10.90;94.60;;;;;;4987320;28;20355;-68
2022/10/19 09:38:32;;;;;;;;;;;10.90;94.50;;;;;;4985960;28;19952;-68
2022/10/19 09:41:04;;;;;;;;;;;10.90;94.50;;;;;;4984596;28;19910;-68
2022/10/19 09:43:30;;;;;;;;;;;10.90;94.60;;;;;;4990754;28;19921;-68
2022/10/19 09:46:01;;;;;;;;;;;11.00;94.50;;;;;;4989982;28;19934;-68
2022/10/19 09:48:32;;;;;;;;;;;11.00;94.60;;;;;;4996282;28;19964;-68
2022/10/19 09:50:59;;;;;;;;;;;11.00;94.50;;;;;;4986102;28;20366;-68
2022/10/19 09:53:25;;;;;;;;;;;11.00;94.30;;;;;;4987207;28;19910;-68
2022/10/19 09:56:11;;;;;;;;;;;11.10;94.40;;;;;;4986635;28;19921;-68
2022/10/19 09:58:45;;;;;;;;;;;11.10;94.30;;;;;;4998534;28;20629;-68
2022/10/19 10:01:27;;;;;;;;;;;11.10;94.40;;;;;;4981715;28;19914;-68
2022/10/19 10:04:03;;;;;;;;;;;11.10;94.30;;;;;;4989611;28;20394;-68
2022/10/19 10:06:28;;;;;;;;;;;11.20;94.30;;;;;;4984627;28;19910;-68
2022/10/19 10:08:57;;;;;;;;;;;11.20;94.30;;;;;;4987161;28;19972;-68
2022/10/19 10:11:30;;;;;;;;;;;11.20;94.30;;;;;;4987078;28;19972;-69
2022/10/19 10:13:57;;;;;;;;;;;11.30;94.30;;;;;;4988969;28;19980;-68
2022/10/19 10:16:23;;;;;;;;;;;11.30;94.70;;;;;;4996358;28;20450;-68
2022/10/19 10:18:49;;;;;;;;;;;11.30;94.20;;;;;;4995284;28;19972;-68
2022/10/19 10:21:19;;;;;;;;;;;11.30;94.30;;;;;;5000367;28;20478;-68
2022/10/19 10:23:57;;;;;;;;;;;11.40;94.10;;;;;;5003353;28;19920;-68
2022/10/19 10:26:24;;;;;;;;;;;11.40;94.10;;;;;;5004570;28;20001;-68
2022/10/19 10:28:50;;;;;;;;;;;11.50;94.10;;;;;;5004964;28;20372;-68
2022/10/19 10:31:19;;;;;;;;;;;11.50;94.10;;;;;;4988192;28;20013;-68
2022/10/19 10:33:51;;;;;;;;;;;11.50;94.10;;;;;;4992076;28;20621;-68
2022/10/19 10:36:21;;;;;;;;;;;11.60;93.90;;;;;;4986494;28;19914;-68
2022/10/19 10:38:51;;;;;;;;;;;11.60;93.90;;;;;;4986827;28;19917;-69
2022/10/19 10:41:21;;;;;;;;;;;11.60;93.80;;;;;;4992103;28;19991;-68
2022/10/19 10:43:56;;;;;;;;;;;11.70;94.00;;;;;;5004531;28;19920;-68
2022/10/19 10:46:23;;;;;;;;;;;11.70;93.90;;;;;;4980244;28;19921;-68
2022/10/19 10:49:00;;;;;;;;;;;11.70;93.80;;;;;;4986393;28;19914;-69
2022/10/19 10:51:39;;;;;;;;;;;11.80;93.80;;;;;;4987215;28;20402;-69
2022/10/19 10:54:07;;;;;;;;;;;11.80;93.70;;;;;;4990141;28;19914;-69
2022/10/19 10:56:34;;;;;;;;;;;11.80;93.70;;;;;;5002981;28;19922;-69
2022/10/19 10:59:03;;;;;;;;;;;11.90;93.80;;;;;;5004465;28;19924;-68
2022/10/19 11:01:31;;;;;;;;;;;11.90;93.80;;;;;;5006116;28;19971;-69
2022/10/19 11:04:03;;;;;;;;;;;11.90;93.80;;;;;;4992518;28;19985;-68
2022/10/19 11:06:30;;;;;;;;;;;12.00;93.70;;;;;;5005693;28;19921;-68
2022/10/19 11:09:16;;;;;;;;;;;12.00;93.60;;;;;;5007432;28;19957;-68
2022/10/19 11:11:44;;;;;;;;;;;12.00;93.60;;;;;;5000990;28;20444;-68
2022/10/19 11:14:13;;;;;;;;;;;12.00;93.80;;;;;;4998011;28;19952;-68
2022/10/19 11:16:40;;;;;;;;;;;12.10;93.60;;;;;;4989482;28;19910;-68
2022/10/19 11:19:06;;;;;;;;;;;12.10;93.50;;;;;;5001171;28;19917;-69
2022/10/19 11:21:51;;;;;;;;;;;12.20;93.50;;;;;;4989977;28;19920;-68
2022/10/19 11:24:25;;;;;;;;;;;12.20;93.60;;;;;;4996809;28;19913;-68
2022/10/19 11:27:09;;;;;;;;;;;12.20;93.60;;;;;;4993777;28;19914;-68
2022/10/19 11:29:42;;;;;;;;;;;12.20;93.50;;;;;;5004129;28;19910;-68
2022/10/19 11:32:19;;;;;;;;;;;12.30;93.70;;;;;;5006452;28;19968;-68
2022/10/19 11:34:59;;;;;;;;;;;12.30;93.50;;;;;;4989654;28;19909;-68
2022/10/19 11:37:25;;;;;;;;;;;12.40;93.70;;;;;;5001023;28;19973;-69
2022/10/19 11:39:53;;;;;;;;;;;12.50;93.40;;;;;;5001739;28;19914;-68
2022/10/19 11:42:31;;;;;;;;;;;12.50;93.40;;;;;;5006444;28;19910;-68
2022/10/19 11:45:03;;;;;;;;;;;12.60;93.40;;;;;;4998690;28;20346;-68
2022/10/19 11:47:50;;;;;;;;;;;12.70;93.20;;;;;;5001857;28;19928;-68
2022/10/19 11:50:15;;;;;;;;;;;12.70;93.20;;;;;;4988162;28;19921;-68
2022/10/19 11:52:45;;;;;;;;;;;12.80;93.30;;;;;;4988806;28;20426;-68
2022/10/19 11:55:11;;;;;;;;;;;12.90;93.10;;;;;;4989229;28;19914;-68
2022/10/19 11:57:46;;;;;;;;;;;12.90;93.20;;;;;;4987849;28;19917;-68
2022/10/19 12:00:15;;;;;;;;;;;12.90;93.30;;;;;;5000649;28;19914;-68
2022/10/19 12:02:40;;;;;;;;;;;13.00;93.20;;;;;;4996591;28;20265;-68
2022/10/19 12:05:10;;;;;;;;;;;13.00;93.10;;;;;;5006529;28;19917;-68
2022/10/19 12:07:45;;;;;;;;;;;13.00;93.10;;;;;;5006647;28;19916;-68
2022/10/19 12:10:22;;;;;;;;;;;13.10;93.00;;;;;;5006588;28;19928;-68
2022/10/19 12:12:50;;;;;;;;;;;13.10;92.90;;;;;;5001590;28;20367;-68
2022/10/19 12:15:25;;;;;;;;;;;13.20;92.90;;;;;;4990662;28;20032;-68
2022/10/19 12:17:51;;;;;;;;;;;13.20;93.00;;;;;;4990902;28;19985;-68
2022/10/19 12:20:16;;;;;;;;;;;13.30;92.90;;;;;;4998488;28;19921;-68
2022/10/19 12:22:42;;;;;;;;;;;13.30;92.90;;;;;;4988143;28;19914;-68
2022/10/19 12:25:13;;;;;;;;;;;13.40;92.80;;;;;;4988716;28;19921;-68
2022/10/19 12:27:39;;;;;;;;;;;13.40;92.90;;;;;;4987903;28;19914;-68
2022/10/19 12:30:06;;;;;;;;;;;13.50;92.80;;;;;;4989878;28;20004;-68
2022/10/19 12:32:36;;;;;;;;;;;13.50;92.70;;;;;;5004603;28;20440;-69
2022/10/19 12:35:28;;;;;;;;;;;13.60;92.80;;;;;;4988483;28;19914;-68
2022/10/19 12:38:04;;;;;;;;;;;13.60;92.70;;;;;;4987859;28;19924;-68
2022/10/19 12:40:43;;;;;;;;;;;13.70;92.60;;;;;;4986606;28;20110;-68
2022/10/19 12:43:19;;;;;;;;;;;13.70;92.80;;;;;;4994294;28;19920;-69
2022/10/19 12:45:50;;;;;;;;;;;13.80;92.70;;;;;;4991903;28;20330;-68
2022/10/19 12:48:18;;;;;;;;;;;13.80;92.70;;;;;;4988170;28;19921;-68
2022/10/19 12:50:46;;;;;;;;;;;13.90;92.80;;;;;;4987600;28;19913;-68
2022/10/19 12:53:24;;;;;;;;;;;13.90;92.90;;;;;;4988470;28;20036;-68
2022/10/19 12:56:04;;;;;;;;;;;14.00;92.90;;;;;;4988057;28;19921;-68
2022/10/19 12:58:33;;;;;;;;;;;14.10;92.90;;;;;;5005855;28;19924;-68
2022/10/19 13:01:00;;;;;;;;;;;14.10;92.90;;;;;;5005977;28;19909;-68
2022/10/19 13:03:33;;;;;;;;;;;14.10;92.70;;;;;;4994175;28;19918;-68
2022/10/19 13:06:06;;;;;;;;;;;14.20;92.90;;;;;;4987548;28;19909;-68
2022/10/19 13:08:36;;;;;;;;;;;14.20;92.90;;;;;;4994037;28;19967;-68
2022/10/19 13:11:03;;;;;;;;;;;14.20;93.00;;;;;;5005105;28;19921;-68
2022/10/19 13:13:58;;;;;;;;;;;14.20;93.10;;;;;;4994703;28;19955;-68
2022/10/19 13:16:35;;;;;;;;;;;14.20;93.10;;;;;;4984533;28;20041;-68
2022/10/19 13:19:02;;;;;;;;;;;14.30;93.10;;;;;;5008310;28;20139;-68
2022/10/19 13:21:46;;;;;;;;;;;14.30;93.10;;;;;;5010516;28;19928;-68
2022/10/19 13:24:19;;;;;;;;;;;14.30;93.10;;;;;;4983241;28;19921;-68
2022/10/19 13:26:44;;;;;;;;;;;14.40;93.20;;;;;;4987403;28;20518;-68
2022/10/19 13:29:27;;;;;;;;;;;14.40;93.30;;;;;;4988045;28;19925;-68
2022/10/19 13:31:52;;;;;;;;;;;14.40;93.30;;;;;;4987857;28;19914;-68
2022/10/19 13:34:18;;;;;;;;;;;14.40;93.30;;;;;;4990052;28;20240;-68
2022/10/19 13:36:59;;;;;;;;;;;14.40;93.30;;;;;;4985621;28;19917;-68
2022/10/19 13:39:26;;;;;;;;;;;14.40;93.50;;;;;;4987530;28;19988;-68
2022/10/19 13:41:52;;;;;;;;;;;14.40;93.70;;;;;;4986822;28;19921;-68
2022/10/19 13:44:19;;;;;;;;;;;14.50;93.70;;;;;;4991621;28;19960;-69
2022/10/19 13:46:51;;;;;;;;;;;14.50;93.70;;;;;;4995406;28;19913;-69
2022/10/19 13:49:25;;;;;;;;;;;14.50;93.70;;;;;;4992455;28;19909;-68
2022/10/19 13:51:51;;;;;;;;;;;14.50;93.90;;;;;;4997649;28;20003;-68
2022/10/19 13:54:25;;;;;;;;;;;14.50;94.10;;;;;;5003910;28;20389;-68
2022/10/19 13:57:02;;;;;;;;;;;14.50;94.10;;;;;;5003536;28;19921;-69
2022/10/19 13:59:53;;;;;;;;;;;14.50;94.10;;;;;;5004393;28;20577;-70
2022/10/19 14:02:37;;;;;;;;;;;14.50;94.30;;;;;;4976955;28;19918;-68
2022/10/19 14:05:03;;;;;;;;;;;14.50;94.30;;;;;;4997809;28;19913;-68
2022/10/19 14:07:31;;;;;;;;;;;14.50;94.20;;;;;;4997884;28;19917;-68
2022/10/19 14:10:19;;;;;;;;;;;14.50;94.30;;;;;;4986274;28;20524;-69
2022/10/19 14:12:45;;;;;;;;;;;14.50;94.30;;;;;;4986094;28;19914;-69
2022/10/19 14:15:21;;;;;;;;;;;14.50;94.30;;;;;;4988547;28;19914;-68
2022/10/19 14:17:47;;;;;;;;;;;14.50;94.50;;;;;;5004109;28;19991;-68
2022/10/19 14:20:39;;;;;;;;;;;14.50;94.90;;;;;;4996402;28;19983;-68
2022/10/19 14:23:17;;;;;;;;;;;14.50;94.50;;;;;;4989021;28;20359;-68
2022/10/19 14:25:48;;;;;;;;;;;14.50;94.60;;;;;;4986094;28;19976;-68